Aviation Digital Data Service (ADDS)

Output produced by METARs form (0301 UTC 23 October 2014)
found at http://www.aviationweather.gov/adds/metars/
 
KPHL 230059Z 2301/2406 34015G24KT 6SM -RA SCT015 OVC030 
     FM230300 34014G22KT P6SM -SHRA OVC030 
     FM231400 32017G30KT P6SM BKN025 OVC035 
     PROB30 2314/2317 P6SM -RA OVC015 
     FM231700 33017G30KT P6SM OVC035 
     FM232100 33015G24KT P6SM SCT025 OVC035